sensor_id;sensor_type;location;lat;lon;timestamp;pressure;altitude;pressure_sealevel;temperature;humidity
41712;BME280;27399;51.516;13.670;2023-10-31T00:01:03;98426.97;;;15.23;96.11
41712;BME280;27399;51.516;13.670;2023-10-31T00:03:28;98436.31;;;15.31;96.38
41712;BME280;27399;51.516;13.670;2023-10-31T00:05:54;98431.91;;;15.30;96.54
41712;BME280;27399;51.516;13.670;2023-10-31T00:08:19;98424.81;;;15.29;96.63
41712;BME280;27399;51.516;13.670;2023-10-31T00:10:45;98419.81;;;15.23;96.65
41712;BME280;27399;51.516;13.670;2023-10-31T00:13:11;98424.19;;;15.24;97.14
41712;BME280;27399;51.516;13.670;2023-10-31T00:15:37;98408.88;;;15.26;96.91
41712;BME280;27399;51.516;13.670;2023-10-31T00:18:02;98415.19;;;15.25;96.79
41712;BME280;27399;51.516;13.670;2023-10-31T00:23:49;98416.84;;;15.28;96.19
41712;BME280;27399;51.516;13.670;2023-10-31T00:26:15;98412.72;;;15.22;96.11
41712;BME280;27399;51.516;13.670;2023-10-31T00:28:41;98425.13;;;15.09;96.68
41712;BME280;27399;51.516;13.670;2023-10-31T00:31:07;98431.34;;;15.09;97.25
41712;BME280;27399;51.516;13.670;2023-10-31T00:33:36;98416.97;;;15.10;97.33
41712;BME280;27399;51.516;13.670;2023-10-31T00:36:01;98406.34;;;15.09;97.18
41712;BME280;27399;51.516;13.670;2023-10-31T00:38:27;98416.53;;;15.18;97.30
41712;BME280;27399;51.516;13.670;2023-10-31T00:40:53;98409.31;;;15.18;97.16
41712;BME280;27399;51.516;13.670;2023-10-31T00:43:18;98393.47;;;14.99;97.16
41712;BME280;27399;51.516;13.670;2023-10-31T00:45:44;98424.97;;;15.26;96.22
41712;BME280;27399;51.516;13.670;2023-10-31T00:48:10;98425.19;;;15.23;96.61
41712;BME280;27399;51.516;13.670;2023-10-31T00:50:35;98441.47;;;15.20;96.85
41712;BME280;27399;51.516;13.670;2023-10-31T00:53:01;98443.78;;;15.26;96.19
41712;BME280;27399;51.516;13.670;2023-10-31T00:55:26;98441.75;;;15.15;96.45
41712;BME280;27399;51.516;13.670;2023-10-31T00:57:52;98453.84;;;15.23;96.67
41712;BME280;27399;51.516;13.670;2023-10-31T01:00:17;98451.03;;;15.24;96.85
41712;BME280;27399;51.516;13.670;2023-10-31T01:02:43;98452.88;;;15.24;96.80
41712;BME280;27399;51.516;13.670;2023-10-31T01:05:10;98447.88;;;15.17;97.16
41712;BME280;27399;51.516;13.670;2023-10-31T01:07:36;98446.84;;;15.20;96.87
41712;BME280;27399;51.516;13.670;2023-10-31T01:10:02;98444.50;;;15.14;97.23
41712;BME280;27399;51.516;13.670;2023-10-31T01:12:28;98448.63;;;15.19;97.18
41712;BME280;27399;51.516;13.670;2023-10-31T01:14:54;98439.66;;;15.05;98.31
41712;BME280;27399;51.516;13.670;2023-10-31T01:17:20;98432.06;;;15.13;97.83
41712;BME280;27399;51.516;13.670;2023-10-31T01:19:46;98436.44;;;15.14;97.42
41712;BME280;27399;51.516;13.670;2023-10-31T01:22:12;98429.16;;;15.16;97.56
41712;BME280;27399;51.516;13.670;2023-10-31T01:24:37;98431.84;;;15.16;97.50
41712;BME280;27399;51.516;13.670;2023-10-31T01:27:03;98424.41;;;15.21;97.74
41712;BME280;27399;51.516;13.670;2023-10-31T01:29:29;98426.31;;;15.19;97.54
41712;BME280;27399;51.516;13.670;2023-10-31T01:31:55;98420.50;;;15.27;97.33
41712;BME280;27399;51.516;13.670;2023-10-31T01:34:21;98412.78;;;15.21;97.03
41712;BME280;27399;51.516;13.670;2023-10-31T01:36:46;98406.19;;;15.26;96.93
41712;BME280;27399;51.516;13.670;2023-10-31T01:39:12;98407.06;;;15.27;96.92
41712;BME280;27399;51.516;13.670;2023-10-31T01:41:37;98405.16;;;15.29;96.71
41712;BME280;27399;51.516;13.670;2023-10-31T01:44:05;98394.50;;;15.27;97.05
41712;BME280;27399;51.516;13.670;2023-10-31T01:46:31;98391.81;;;15.27;97.15
41712;BME280;27399;51.516;13.670;2023-10-31T01:48:57;98384.13;;;15.21;97.02
41712;BME280;27399;51.516;13.670;2023-10-31T01:51:23;98389.22;;;15.26;97.21
41712;BME280;27399;51.516;13.670;2023-10-31T01:53:48;98387.03;;;15.32;96.82
41712;BME280;27399;51.516;13.670;2023-10-31T01:56:14;98383.69;;;15.29;96.73
41712;BME280;27399;51.516;13.670;2023-10-31T01:58:39;98381.94;;;15.28;96.93
41712;BME280;27399;51.516;13.670;2023-10-31T02:01:07;98376.28;;;15.32;96.79
41712;BME280;27399;51.516;13.670;2023-10-31T02:03:32;98370.25;;;15.29;97.36
41712;BME280;27399;51.516;13.670;2023-10-31T02:05:58;98371.78;;;15.33;96.91
41712;BME280;27399;51.516;13.670;2023-10-31T02:08:25;98375.06;;;15.38;96.83
41712;BME280;27399;51.516;13.670;2023-10-31T02:10:50;98362.47;;;15.39;97.26
41712;BME280;27399;51.516;13.670;2023-10-31T02:13:17;98359.91;;;15.37;97.44
41712;BME280;27399;51.516;13.670;2023-10-31T02:15:44;98342.13;;;15.34;97.75
41712;BME280;27399;51.516;13.670;2023-10-31T02:18:10;98340.13;;;15.24;97.89
41712;BME280;27399;51.516;13.670;2023-10-31T02:20:36;98353.16;;;15.30;98.60
41712;BME280;27399;51.516;13.670;2023-10-31T02:23:02;98344.63;;;15.38;98.00
41712;BME280;27399;51.516;13.670;2023-10-31T02:25:28;98357.09;;;15.39;97.83
41712;BME280;27399;51.516;13.670;2023-10-31T02:27:54;98344.25;;;15.29;100.00
41712;BME280;27399;51.516;13.670;2023-10-31T02:30:20;98349.06;;;15.39;100.00
41712;BME280;27399;51.516;13.670;2023-10-31T02:32:46;98346.97;;;15.44;99.96
41712;BME280;27399;51.516;13.670;2023-10-31T02:35:12;98363.25;;;15.41;100.00
41712;BME280;27399;51.516;13.670;2023-10-31T02:37:37;98355.31;;;15.39;100.00
41712;BME280;27399;51.516;13.670;2023-10-31T02:40:04;98361.91;;;15.33;100.00
41712;BME280;27399;51.516;13.670;2023-10-31T02:42:29;98371.50;;;15.38;100.00
41712;BME280;27399;51.516;13.670;2023-10-31T02:44:56;98368.41;;;15.29;100.00
41712;BME280;27399;51.516;13.670;2023-10-31T02:47:21;98377.25;;;15.31;100.00
41712;BME280;27399;51.516;13.670;2023-10-31T02:49:47;98370.09;;;15.01;100.00
41712;BME280;27399;51.516;13.670;2023-10-31T02:52:12;98375.41;;;15.17;100.00
41712;BME280;27399;51.516;13.670;2023-10-31T02:54:38;98377.38;;;15.14;100.00
41712;BME280;27399;51.516;13.670;2023-10-31T02:57:04;98381.16;;;14.95;100.00
41712;BME280;27399;51.516;13.670;2023-10-31T02:59:29;98388.91;;;15.16;100.00
41712;BME280;27399;51.516;13.670;2023-10-31T03:01:56;98392.03;;;15.08;100.00
41712;BME280;27399;51.516;13.670;2023-10-31T03:04:22;98399.56;;;15.17;100.00
41712;BME280;27399;51.516;13.670;2023-10-31T03:06:48;98395.06;;;14.71;100.00
41712;BME280;27399;51.516;13.670;2023-10-31T03:09:14;98401.50;;;14.99;100.00
41712;BME280;27399;51.516;13.670;2023-10-31T03:11:39;98397.78;;;15.02;100.00
41712;BME280;27399;51.516;13.670;2023-10-31T03:14:05;98395.00;;;14.73;100.00
41712;BME280;27399;51.516;13.670;2023-10-31T03:16:31;98396.75;;;14.88;100.00
41712;BME280;27399;51.516;13.670;2023-10-31T03:18:58;98393.13;;;14.90;100.00
41712;BME280;27399;51.516;13.670;2023-10-31T03:21:24;98384.97;;;15.07;100.00
41712;BME280;27399;51.516;13.670;2023-10-31T03:23:50;98386.75;;;15.07;100.00
41712;BME280;27399;51.516;13.670;2023-10-31T03:26:18;98388.25;;;14.96;100.00
41712;BME280;27399;51.516;13.670;2023-10-31T03:28:44;98385.69;;;14.95;100.00
41712;BME280;27399;51.516;13.670;2023-10-31T03:31:10;98391.22;;;14.92;100.00
41712;BME280;27399;51.516;13.670;2023-10-31T03:33:36;98389.84;;;15.15;100.00
41712;BME280;27399;51.516;13.670;2023-10-31T03:36:02;98389.03;;;14.98;100.00
41712;BME280;27399;51.516;13.670;2023-10-31T03:38:27;98393.59;;;15.12;100.00
41712;BME280;27399;51.516;13.670;2023-10-31T03:40:53;98394.97;;;14.89;100.00
41712;BME280;27399;51.516;13.670;2023-10-31T03:43:19;98393.88;;;15.08;100.00
41712;BME280;27399;51.516;13.670;2023-10-31T03:45:46;98397.81;;;14.86;100.00
41712;BME280;27399;51.516;13.670;2023-10-31T03:48:16;98397.44;;;14.92;100.00
41712;BME280;27399;51.516;13.670;2023-10-31T03:50:42;98398.81;;;14.99;100.00
41712;BME280;27399;51.516;13.670;2023-10-31T03:53:08;98403.44;;;14.81;100.00
41712;BME280;27399;51.516;13.670;2023-10-31T03:55:33;98410.53;;;14.66;100.00
41712;BME280;27399;51.516;13.670;2023-10-31T03:57:59;98404.56;;;14.45;100.00
41712;BME280;27399;51.516;13.670;2023-10-31T04:00:25;98410.88;;;14.76;100.00
41712;BME280;27399;51.516;13.670;2023-10-31T04:02:51;98410.44;;;14.84;100.00
41712;BME280;27399;51.516;13.670;2023-10-31T04:05:16;98406.56;;;14.74;100.00
41712;BME280;27399;51.516;13.670;2023-10-31T04:07:43;98414.69;;;14.56;100.00
41712;BME280;27399;51.516;13.670;2023-10-31T04:10:09;98411.34;;;14.68;100.00
41712;BME280;27399;51.516;13.670;2023-10-31T04:12:35;98415.41;;;14.76;100.00
41712;BME280;27399;51.516;13.670;2023-10-31T04:15:01;98407.44;;;14.74;100.00
41712;BME280;27399;51.516;13.670;2023-10-31T04:17:27;98404.00;;;14.72;100.00
41712;BME280;27399;51.516;13.670;2023-10-31T04:19:52;98403.34;;;14.83;100.00
41712;BME280;27399;51.516;13.670;2023-10-31T04:22:18;98399.88;;;14.97;100.00
41712;BME280;27399;51.516;13.670;2023-10-31T04:24:43;98388.22;;;15.12;100.00
41712;BME280;27399;51.516;13.670;2023-10-31T04:27:09;98384.97;;;15.22;100.00
41712;BME280;27399;51.516;13.670;2023-10-31T04:29:34;98382.47;;;15.18;100.00
41712;BME280;27399;51.516;13.670;2023-10-31T04:32:00;98371.06;;;15.15;100.00
41712;BME280;27399;51.516;13.670;2023-10-31T04:34:25;98378.09;;;15.17;100.00
41712;BME280;27399;51.516;13.670;2023-10-31T04:36:51;98373.75;;;15.15;100.00
41712;BME280;27399;51.516;13.670;2023-10-31T04:39:16;98378.75;;;15.21;100.00
41712;BME280;27399;51.516;13.670;2023-10-31T04:41:42;98375.88;;;15.24;100.00
41712;BME280;27399;51.516;13.670;2023-10-31T04:44:07;98387.09;;;15.31;100.00
41712;BME280;27399;51.516;13.670;2023-10-31T04:46:33;98386.59;;;15.24;100.00
41712;BME280;27399;51.516;13.670;2023-10-31T04:48:59;98376.84;;;15.38;100.00
41712;BME280;27399;51.516;13.670;2023-10-31T04:51:25;98381.38;;;15.37;100.00
41712;BME280;27399;51.516;13.670;2023-10-31T04:53:50;98394.41;;;15.29;100.00
41712;BME280;27399;51.516;13.670;2023-10-31T04:56:17;98390.56;;;15.33;100.00
41712;BME280;27399;51.516;13.670;2023-10-31T04:58:44;98395.94;;;15.33;100.00
41712;BME280;27399;51.516;13.670;2023-10-31T05:01:11;98394.34;;;15.45;100.00
41712;BME280;27399;51.516;13.670;2023-10-31T05:03:37;98405.72;;;15.34;100.00
41712;BME280;27399;51.516;13.670;2023-10-31T05:06:03;98402.97;;;15.05;100.00
41712;BME280;27399;51.516;13.670;2023-10-31T05:08:29;98406.28;;;14.94;100.00
41712;BME280;27399;51.516;13.670;2023-10-31T05:10:57;98413.84;;;15.18;100.00
41712;BME280;27399;51.516;13.670;2023-10-31T05:13:23;98414.44;;;15.23;100.00
41712;BME280;27399;51.516;13.670;2023-10-31T05:15:48;98419.69;;;14.94;100.00
41712;BME280;27399;51.516;13.670;2023-10-31T05:18:14;98412.19;;;14.69;100.00
41712;BME280;27399;51.516;13.670;2023-10-31T05:20:40;98430.78;;;14.88;100.00
41712;BME280;27399;51.516;13.670;2023-10-31T05:23:06;98421.56;;;14.78;100.00
41712;BME280;27399;51.516;13.670;2023-10-31T05:25:32;98432.66;;;15.02;100.00
41712;BME280;27399;51.516;13.670;2023-10-31T05:27:57;98428.44;;;14.66;100.00
41712;BME280;27399;51.516;13.670;2023-10-31T05:30:23;98436.06;;;14.90;100.00
41712;BME280;27399;51.516;13.670;2023-10-31T05:32:49;98423.94;;;14.98;100.00
41712;BME280;27399;51.516;13.670;2023-10-31T05:35:15;98430.03;;;15.16;100.00
41712;BME280;27399;51.516;13.670;2023-10-31T05:37:40;98436.56;;;14.96;100.00
41712;BME280;27399;51.516;13.670;2023-10-31T05:40:06;98434.31;;;14.88;100.00
41712;BME280;27399;51.516;13.670;2023-10-31T05:42:32;98440.56;;;15.05;100.00
41712;BME280;27399;51.516;13.670;2023-10-31T05:44:58;98437.94;;;15.03;100.00
41712;BME280;27399;51.516;13.670;2023-10-31T05:47:25;98437.47;;;14.81;100.00
41712;BME280;27399;51.516;13.670;2023-10-31T05:49:53;98440.03;;;14.98;100.00
41712;BME280;27399;51.516;13.670;2023-10-31T05:52:19;98439.88;;;15.01;100.00
41712;BME280;27399;51.516;13.670;2023-10-31T05:54:44;98444.31;;;14.86;100.00
41712;BME280;27399;51.516;13.670;2023-10-31T05:57:10;98464.38;;;14.95;100.00
41712;BME280;27399;51.516;13.670;2023-10-31T05:59:35;98468.63;;;14.67;100.00
41712;BME280;27399;51.516;13.670;2023-10-31T06:02:01;98481.78;;;14.88;100.00
41712;BME280;27399;51.516;13.670;2023-10-31T06:04:27;98473.88;;;15.01;100.00
41712;BME280;27399;51.516;13.670;2023-10-31T06:06:58;98486.53;;;14.83;100.00
41712;BME280;27399;51.516;13.670;2023-10-31T06:09:24;98497.19;;;14.68;100.00
41712;BME280;27399;51.516;13.670;2023-10-31T06:11:49;98499.25;;;14.95;100.00
41712;BME280;27399;51.516;13.670;2023-10-31T06:14:15;98493.19;;;14.92;100.00
41712;BME280;27399;51.516;13.670;2023-10-31T06:16:41;98497.47;;;14.80;100.00
41712;BME280;27399;51.516;13.670;2023-10-31T06:19:07;98499.88;;;14.84;100.00
41712;BME280;27399;51.516;13.670;2023-10-31T06:21:33;98503.59;;;14.82;100.00
41712;BME280;27399;51.516;13.670;2023-10-31T06:23:59;98514.78;;;14.74;100.00
41712;BME280;27399;51.516;13.670;2023-10-31T06:26:24;98520.69;;;14.63;100.00
41712;BME280;27399;51.516;13.670;2023-10-31T06:28:50;98517.56;;;14.55;100.00
41712;BME280;27399;51.516;13.670;2023-10-31T06:31:15;98511.72;;;14.80;100.00
41712;BME280;27399;51.516;13.670;2023-10-31T06:33:41;98520.03;;;14.76;100.00
41712;BME280;27399;51.516;13.670;2023-10-31T06:36:07;98525.50;;;14.90;100.00
41712;BME280;27399;51.516;13.670;2023-10-31T06:38:33;98523.94;;;15.02;100.00
41712;BME280;27399;51.516;13.670;2023-10-31T06:40:59;98530.78;;;14.76;99.02
41712;BME280;27399;51.516;13.670;2023-10-31T06:43:24;98549.28;;;14.96;99.52
41712;BME280;27399;51.516;13.670;2023-10-31T06:45:50;98556.81;;;14.74;100.00
41712;BME280;27399;51.516;13.670;2023-10-31T06:48:16;98546.28;;;14.86;98.48
41712;BME280;27399;51.516;13.670;2023-10-31T06:50:41;98545.81;;;14.94;98.34
41712;BME280;27399;51.516;13.670;2023-10-31T06:53:07;98564.72;;;14.93;97.68
41712;BME280;27399;51.516;13.670;2023-10-31T06:55:32;98573.63;;;14.93;97.35
41712;BME280;27399;51.516;13.670;2023-10-31T06:57:58;98578.97;;;14.93;96.54
41712;BME280;27399;51.516;13.670;2023-10-31T07:00:23;98586.00;;;14.80;96.45
41712;BME280;27399;51.516;13.670;2023-10-31T07:02:49;98581.16;;;14.86;95.95
41712;BME280;27399;51.516;13.670;2023-10-31T07:05:15;98586.19;;;14.93;95.21
41712;BME280;27399;51.516;13.670;2023-10-31T07:07:41;98584.19;;;14.96;94.85
41712;BME280;27399;51.516;13.670;2023-10-31T07:10:07;98598.66;;;14.94;94.60
41712;BME280;27399;51.516;13.670;2023-10-31T07:12:33;98606.34;;;14.50;95.03
41712;BME280;27399;51.516;13.670;2023-10-31T07:14:58;98603.50;;;14.87;94.16
41712;BME280;27399;51.516;13.670;2023-10-31T07:17:25;98604.34;;;14.87;93.98
41712;BME280;27399;51.516;13.670;2023-10-31T07:19:51;98606.84;;;14.75;93.21
41712;BME280;27399;51.516;13.670;2023-10-31T07:22:16;98618.38;;;14.77;92.79
41712;BME280;27399;51.516;13.670;2023-10-31T07:24:42;98610.69;;;14.86;92.45
41712;BME280;27399;51.516;13.670;2023-10-31T07:27:09;98611.72;;;14.66;91.31
41712;BME280;27399;51.516;13.670;2023-10-31T07:29:34;98613.44;;;14.85;92.47
41712;BME280;27399;51.516;13.670;2023-10-31T07:32:00;98627.13;;;14.63;91.27
41712;BME280;27399;51.516;13.670;2023-10-31T07:34:27;98633.75;;;14.73;91.36
41712;BME280;27399;51.516;13.670;2023-10-31T07:36:53;98646.53;;;14.85;91.88
41712;BME280;27399;51.516;13.670;2023-10-31T07:39:18;98642.13;;;15.00;90.35
41712;BME280;27399;51.516;13.670;2023-10-31T07:41:44;98645.47;;;14.88;90.07
41712;BME280;27399;51.516;13.670;2023-10-31T07:44:09;98654.81;;;14.81;88.87
41712;BME280;27399;51.516;13.670;2023-10-31T07:46:35;98643.13;;;14.98;89.40
41712;BME280;27399;51.516;13.670;2023-10-31T07:49:00;98639.00;;;15.08;88.82
41712;BME280;27399;51.516;13.670;2023-10-31T07:51:26;98646.44;;;14.87;88.89
41712;BME280;27399;51.516;13.670;2023-10-31T07:53:51;98643.06;;;14.99;88.14
41712;BME280;27399;51.516;13.670;2023-10-31T07:56:18;98654.13;;;14.93;87.99
41712;BME280;27399;51.516;13.670;2023-10-31T07:58:48;98655.97;;;14.93;88.70
41712;BME280;27399;51.516;13.670;2023-10-31T08:01:16;98672.75;;;14.96;88.02
41712;BME280;27399;51.516;13.670;2023-10-31T08:03:41;98680.16;;;14.75;88.96
41712;BME280;27399;51.516;13.670;2023-10-31T08:06:07;98692.94;;;15.03;87.41
41712;BME280;27399;51.516;13.670;2023-10-31T08:08:33;98690.44;;;15.00;87.07
41712;BME280;27399;51.516;13.670;2023-10-31T08:10:59;98696.69;;;15.17;87.19
41712;BME280;27399;51.516;13.670;2023-10-31T08:13:25;98697.38;;;15.21;85.35
41712;BME280;27399;51.516;13.670;2023-10-31T08:15:50;98698.44;;;15.34;86.63
41712;BME280;27399;51.516;13.670;2023-10-31T08:18:16;98701.38;;;15.29;85.76
41712;BME280;27399;51.516;13.670;2023-10-31T08:20:41;98701.22;;;15.64;84.74
41712;BME280;27399;51.516;13.670;2023-10-31T08:23:08;98710.84;;;15.69;85.04
41712;BME280;27399;51.516;13.670;2023-10-31T08:25:34;98700.03;;;15.70;84.06
41712;BME280;27399;51.516;13.670;2023-10-31T08:28:00;98694.13;;;15.95;84.06
41712;BME280;27399;51.516;13.670;2023-10-31T08:30:25;98701.53;;;16.06;82.65
41712;BME280;27399;51.516;13.670;2023-10-31T08:32:51;98708.09;;;16.17;81.93
41712;BME280;27399;51.516;13.670;2023-10-31T08:35:16;98717.13;;;16.16;82.53
41712;BME280;27399;51.516;13.670;2023-10-31T08:37:42;98723.16;;;16.05;83.03
41712;BME280;27399;51.516;13.670;2023-10-31T08:40:08;98731.88;;;16.24;81.33
41712;BME280;27399;51.516;13.670;2023-10-31T08:42:34;98719.72;;;16.33;81.87
41712;BME280;27399;51.516;13.670;2023-10-31T08:44:59;98730.34;;;16.04;82.29
41712;BME280;27399;51.516;13.670;2023-10-31T08:47:25;98728.13;;;15.97;81.38
41712;BME280;27399;51.516;13.670;2023-10-31T08:49:50;98731.34;;;15.87;82.87
41712;BME280;27399;51.516;13.670;2023-10-31T08:52:16;98727.31;;;16.10;81.53
41712;BME280;27399;51.516;13.670;2023-10-31T08:54:43;98723.66;;;16.42;80.83
41712;BME280;27399;51.516;13.670;2023-10-31T08:57:08;98734.84;;;16.65;80.50
41712;BME280;27399;51.516;13.670;2023-10-31T08:59:34;98714.53;;;17.04;79.16
41712;BME280;27399;51.516;13.670;2023-10-31T09:02:01;98734.81;;;17.68;76.46
41712;BME280;27399;51.516;13.670;2023-10-31T09:04:27;98749.91;;;17.70;76.58
41712;BME280;27399;51.516;13.670;2023-10-31T09:06:52;98752.25;;;17.47;75.82
41712;BME280;27399;51.516;13.670;2023-10-31T09:09:18;98749.25;;;17.66;75.78
41712;BME280;27399;51.516;13.670;2023-10-31T09:11:43;98759.56;;;17.60;75.35
41712;BME280;27399;51.516;13.670;2023-10-31T09:14:09;98770.63;;;17.41;75.89
41712;BME280;27399;51.516;13.670;2023-10-31T09:16:35;98777.28;;;17.21;76.40
41712;BME280;27399;51.516;13.670;2023-10-31T09:19:00;98783.31;;;16.65;76.52
41712;BME280;27399;51.516;13.670;2023-10-31T09:21:26;98779.97;;;17.49;74.53
41712;BME280;27399;51.516;13.670;2023-10-31T09:23:51;98781.50;;;17.39;74.41
41712;BME280;27399;51.516;13.670;2023-10-31T09:26:17;98779.31;;;17.60;73.80
41712;BME280;27399;51.516;13.670;2023-10-31T09:28:43;98788.22;;;17.46;74.24
41712;BME280;27399;51.516;13.670;2023-10-31T09:31:18;98791.72;;;17.19;76.65
41712;BME280;27399;51.516;13.670;2023-10-31T09:33:45;98782.09;;;17.01;76.11
41712;BME280;27399;51.516;13.670;2023-10-31T09:36:11;98807.63;;;16.63;75.65
41712;BME280;27399;51.516;13.670;2023-10-31T09:38:38;98808.22;;;16.38;75.28
41712;BME280;27399;51.516;13.670;2023-10-31T09:41:04;98799.81;;;16.12;76.59
41712;BME280;27399;51.516;13.670;2023-10-31T09:43:29;98814.41;;;16.54;77.71
41712;BME280;27399;51.516;13.670;2023-10-31T09:45:56;98815.94;;;16.28;76.94
41712;BME280;27399;51.516;13.670;2023-10-31T09:48:22;98824.94;;;16.27;76.70
41712;BME280;27399;51.516;13.670;2023-10-31T09:50:49;98821.16;;;16.15;76.01
41712;BME280;27399;51.516;13.670;2023-10-31T09:53:15;98823.97;;;15.80;76.71
41712;BME280;27399;51.516;13.670;2023-10-31T09:55:45;98830.78;;;15.87;76.67
41712;BME280;27399;51.516;13.670;2023-10-31T09:58:11;98821.38;;;15.78;76.67
41712;BME280;27399;51.516;13.670;2023-10-31T10:00:36;98819.53;;;15.97;76.76
41712;BME280;27399;51.516;13.670;2023-10-31T10:03:03;98803.13;;;16.48;77.55
41712;BME280;27399;51.516;13.670;2023-10-31T10:05:33;98806.19;;;16.72;74.23
41712;BME280;27399;51.516;13.670;2023-10-31T10:08:00;98799.50;;;17.53;72.97
41712;BME280;27399;51.516;13.670;2023-10-31T10:10:26;98807.88;;;17.48;71.89
41712;BME280;27399;51.516;13.670;2023-10-31T10:12:52;98805.56;;;17.71;70.91
41712;BME280;27399;51.516;13.670;2023-10-31T10:15:18;98808.00;;;17.61;71.52
41712;BME280;27399;51.516;13.670;2023-10-31T10:17:51;98816.53;;;17.97;70.40
41712;BME280;27399;51.516;13.670;2023-10-31T10:20:17;98801.22;;;17.98;70.58
41712;BME280;27399;51.516;13.670;2023-10-31T10:22:44;98824.50;;;18.13;69.90
41712;BME280;27399;51.516;13.670;2023-10-31T10:25:11;98824.41;;;17.57;69.92
41712;BME280;27399;51.516;13.670;2023-10-31T10:27:44;98831.75;;;17.98;69.94
41712;BME280;27399;51.516;13.670;2023-10-31T10:30:14;98828.09;;;17.56;69.76
41712;BME280;27399;51.516;13.670;2023-10-31T10:32:40;98824.81;;;17.50;71.00
41712;BME280;27399;51.516;13.670;2023-10-31T10:35:06;98833.47;;;17.27;71.19
41712;BME280;27399;51.516;13.670;2023-10-31T10:37:36;98840.53;;;16.99;70.38
41712;BME280;27399;51.516;13.670;2023-10-31T10:40:05;98838.91;;;17.11;70.84
41712;BME280;27399;51.516;13.670;2023-10-31T10:42:51;98845.25;;;16.95;70.59
41712;BME280;27399;51.516;13.670;2023-10-31T10:45:23;98840.38;;;17.02;69.81
41712;BME280;27399;51.516;13.670;2023-10-31T10:47:50;98845.69;;;17.18;71.79
41712;BME280;27399;51.516;13.670;2023-10-31T10:50:19;98851.47;;;16.96;70.55
41712;BME280;27399;51.516;13.670;2023-10-31T10:53:35;98840.09;;;16.91;69.90
41712;BME280;27399;51.516;13.670;2023-10-31T10:56:13;98844.75;;;16.72;69.62
41712;BME280;27399;51.516;13.670;2023-10-31T10:58:51;98855.59;;;16.24;71.11
41712;BME280;27399;51.516;13.670;2023-10-31T11:01:20;98873.88;;;16.50;72.23
41712;BME280;27399;51.516;13.670;2023-10-31T11:03:46;98867.63;;;16.49;71.93
41712;BME280;27399;51.516;13.670;2023-10-31T11:06:12;98876.75;;;16.15;72.12
41712;BME280;27399;51.516;13.670;2023-10-31T11:08:39;98864.25;;;16.30;72.02
41712;BME280;27399;51.516;13.670;2023-10-31T11:11:06;98875.72;;;16.49;73.10
41712;BME280;27399;51.516;13.670;2023-10-31T11:13:32;98882.47;;;16.56;72.63
41712;BME280;27399;51.516;13.670;2023-10-31T11:16:03;98887.59;;;16.13;72.50
41712;BME280;27399;51.516;13.670;2023-10-31T11:18:30;98883.69;;;16.03;71.87
41712;BME280;27399;51.516;13.670;2023-10-31T11:20:56;98858.03;;;16.13;72.05
41712;BME280;27399;51.516;13.670;2023-10-31T11:23:22;98864.50;;;16.25;71.29
41712;BME280;27399;51.516;13.670;2023-10-31T11:25:50;98861.44;;;16.63;72.04
41712;BME280;27399;51.516;13.670;2023-10-31T11:28:18;98855.38;;;16.60;73.39
41712;BME280;27399;51.516;13.670;2023-10-31T11:30:48;98855.22;;;16.31;71.02
41712;BME280;27399;51.516;13.670;2023-10-31T11:33:15;98836.53;;;16.60;71.06
41712;BME280;27399;51.516;13.670;2023-10-31T11:35:42;98848.28;;;16.42;71.16
41712;BME280;27399;51.516;13.670;2023-10-31T11:38:10;98849.16;;;16.43;70.86
41712;BME280;27399;51.516;13.670;2023-10-31T11:40:46;98858.38;;;16.23;71.52
41712;BME280;27399;51.516;13.670;2023-10-31T11:43:23;98876.06;;;16.11;71.97
41712;BME280;27399;51.516;13.670;2023-10-31T11:45:48;98869.56;;;16.31;71.86
41712;BME280;27399;51.516;13.670;2023-10-31T11:48:14;98883.69;;;16.35;71.73
41712;BME280;27399;51.516;13.670;2023-10-31T11:50:40;98873.28;;;16.29;73.70
41712;BME280;27399;51.516;13.670;2023-10-31T11:53:11;98898.00;;;15.70;73.30
41712;BME280;27399;51.516;13.670;2023-10-31T11:55:44;98881.28;;;16.14;73.06
41712;BME280;27399;51.516;13.670;2023-10-31T11:58:22;98887.44;;;16.00;72.48
41712;BME280;27399;51.516;13.670;2023-10-31T12:00:50;98889.13;;;15.85;73.22
41712;BME280;27399;51.516;13.670;2023-10-31T12:03:17;98891.75;;;16.03;72.94
41712;BME280;27399;51.516;13.670;2023-10-31T12:05:57;98885.84;;;15.96;72.46
41712;BME280;27399;51.516;13.670;2023-10-31T12:08:30;98891.34;;;16.26;72.79
41712;BME280;27399;51.516;13.670;2023-10-31T12:11:23;98891.16;;;15.98;74.68
41712;BME280;27399;51.516;13.670;2023-10-31T12:13:59;98899.22;;;15.98;73.21
41712;BME280;27399;51.516;13.670;2023-10-31T12:16:30;98904.78;;;16.10;73.14
41712;BME280;27399;51.516;13.670;2023-10-31T12:19:01;98897.66;;;16.25;73.54
41712;BME280;27399;51.516;13.670;2023-10-31T12:21:41;98897.78;;;16.24;73.44
41712;BME280;27399;51.516;13.670;2023-10-31T12:24:12;98879.53;;;15.97;73.54
41712;BME280;27399;51.516;13.670;2023-10-31T12:26:38;98883.69;;;16.03;73.25
41712;BME280;27399;51.516;13.670;2023-10-31T12:31:44;98905.38;;;16.16;72.98
41712;BME280;27399;51.516;13.670;2023-10-31T12:34:18;98925.16;;;16.31;73.42
41712;BME280;27399;51.516;13.670;2023-10-31T12:36:46;98929.31;;;16.04;73.26
41712;BME280;27399;51.516;13.670;2023-10-31T12:39:13;98915.50;;;15.94;74.54
41712;BME280;27399;51.516;13.670;2023-10-31T12:41:40;98919.06;;;16.11;73.63
41712;BME280;27399;51.516;13.670;2023-10-31T12:44:06;98902.25;;;16.07;73.61
41712;BME280;27399;51.516;13.670;2023-10-31T12:46:39;98901.41;;;16.23;74.52
41712;BME280;27399;51.516;13.670;2023-10-31T12:49:11;98903.06;;;16.25;74.00
41712;BME280;27399;51.516;13.670;2023-10-31T12:51:38;98887.00;;;16.24;74.98